SHA weather

Shanghai Hongqiao International Airport
Shanghai, Shanghai Municipality, China

Public forecast

Using degrees Celsius for public forecast. Weather courtesy of forecast.io.

METAR (pilot weather report)

Retrieved 2019/06/24 15:30 UTC (12 minutes ago):

ZSSS 241530Z 14005MPS 110V170 9999 SCT023 23/18 Q1012 NOSIG

TAF (pilot weather forecast)

Retrieved 2019/06/24 12:00 UTC (4 hours ago):

TAF ZSSS 240912Z 2412/2512 12004MPS 6000 SCT030 TX26/2506Z TN21/2421Z